Terminal Aerodrome Forecast
Issued by NWS Cheyenne, WY

Home | Current Version | Previous Version | Text Only | Print | Product List | Glossary On
Versions: 1 2 3 4 5 6 7 8 9 10 11 12 13 14 15 16 17 18 19 20 21
000
FTUS45 KCYS 071223 CCC
TAFCYS
TAF COR
KCYS 071223Z 0712/0812 36015KT 3SM -SN OVC035
      TEMPO 0713/0716 1SM -SN OVC015
     FM071600 36012KT P6SM BKN035
     FM071800 34012KT P6SM BKN050
     FM080300 30007KT P6SM SCT100=

USA.gov is the U.S. government's official web portal to all federal, state and local government web resources and services.